Mhead, Massachusetts
Current Conditions -  °F | °C
As of 1:53 AM on Thursday 23 Oct 2014 (Local Time) from KBVY Reporting Station
Moderate Rain Moderate Rain  
Wind Chill: 51°   Ceiling: 800
Heat Index: 51°   Visibility: 3mi
Dew Point: 48°   Wind: 24mph
Humidity: 89%   Direction: 30°NNE
Pressure: 29.77"   Gusts: 37mph
Location:  42.4989°N, 70.8636°W
Report Text: KBVY 230553Z AUTO 03021G32KT 3SM RA BR BKN008 OVC012 11/09 A2977 RMK AO2 PK WND 02034/0543 SLP077 P0047 60117 T01060089 10106 20100 56013
Loading
Personal Weather Stations






























Interactive Weather Map
Tropical Storm Tracking
New forecast layout! Learn more

10-Day Weather Forecast

Advertisements
Track Severe Weather on mobile